Time;durP1;ratioP1;P1;durP2;ratioP2;P2;SDS_P1;SDS_P2;PMS_P1;PMS_P2;Temp;Humidity;BMP_temperature;BMP_pressure;BME280_temperature;BME280_humidity;BME280_pressure;Samples;Min_cycle;Max_cycle;Signal;HPM_P1;HPM_P2
2021/03/24 00:02:17;;;;;;;25.77;20.37;;;0.90;99.90;;;;;;5078375;28;20445;-78
2021/03/24 00:04:43;;;;;;;20.93;18.73;;;0.90;99.90;;;;;;5077839;28;20929;-78
2021/03/24 00:07:11;;;;;;;28.13;19.93;;;0.90;99.90;;;;;;5078911;28;20437;-79
2021/03/24 00:09:37;;;;;;;20.67;18.57;;;0.80;99.90;;;;;;5077742;28;20461;-79
2021/03/24 00:12:04;;;;;;;21.33;19.13;;;0.90;99.90;;;;;;5078728;28;20498;-78
2021/03/24 00:14:31;;;;;;;22.90;19.17;;;0.80;99.90;;;;;;5078510;28;20483;-78
2021/03/24 00:16:57;;;;;;;22.70;19.60;;;0.90;99.90;;;;;;5079025;28;20491;-79
2021/03/24 00:19:23;;;;;;;24.90;19.80;;;0.90;99.90;;;;;;5076147;28;20472;-79
2021/03/24 00:21:50;;;;;;;24.03;19.97;;;0.90;99.90;;;;;;5076894;28;20453;-79
2021/03/24 00:24:17;;;;;;;22.17;19.87;;;0.90;99.90;;;;;;5078729;28;20871;-79
2021/03/24 00:26:43;;;;;;;21.20;18.90;;;0.90;99.90;;;;;;5077234;28;20981;-79
2021/03/24 00:29:09;;;;;;;20.57;18.47;;;0.90;99.90;;;;;;5076755;28;20472;-78
2021/03/24 00:31:36;;;;;;;29.03;20.20;;;0.80;99.90;;;;;;5076362;28;20502;-79
2021/03/24 00:34:02;;;;;;;23.27;19.50;;;0.90;99.90;;;;;;5076023;28;20469;-79
2021/03/24 00:36:28;;;;;;;27.17;20.67;;;0.90;99.90;;;;;;5077693;28;20441;-78
2021/03/24 00:38:57;;;;;;;24.80;20.47;;;0.80;99.90;;;;;;5076320;28;20500;-78
2021/03/24 00:41:24;;;;;;;19.83;17.73;;;0.70;99.90;;;;;;5077672;28;20460;-78
2021/03/24 00:43:50;;;;;;;21.07;18.87;;;0.70;99.90;;;;;;5072052;28;20421;-79
2021/03/24 00:46:17;;;;;;;21.83;19.53;;;0.60;99.90;;;;;;5076896;28;20437;-78
2021/03/24 00:51:24;;;;;;;23.93;19.50;;;0.50;99.90;;;;;;5001900;28;20518;-80
2021/03/24 00:53:51;;;;;;;21.07;18.80;;;0.40;99.90;;;;;;5000322;28;21028;-79
2021/03/24 00:56:17;;;;;;;28.20;19.67;;;0.40;99.90;;;;;;4993738;28;20519;-79
2021/03/24 00:58:44;;;;;;;23.43;19.50;;;0.40;99.90;;;;;;4993433;28;20591;-80
2021/03/24 01:01:11;;;;;;;21.43;19.17;;;0.40;99.90;;;;;;4983445;28;20484;-80
2021/03/24 01:03:37;;;;;;;19.70;17.70;;;0.40;99.90;;;;;;4985164;28;20463;-80
2021/03/24 01:06:04;;;;;;;22.83;19.10;;;0.40;99.90;;;;;;4984106;28;20464;-79
2021/03/24 01:08:30;;;;;;;21.03;18.77;;;0.40;99.90;;;;;;4986695;28;20441;-78
2021/03/24 01:11:00;;;;;;;24.00;18.77;;;0.40;99.90;;;;;;4987359;28;20480;-79
2021/03/24 01:13:27;;;;;;;20.83;18.47;;;0.40;99.90;;;;;;4984899;28;20473;-80
2021/03/24 01:15:54;;;;;;;21.57;18.80;;;0.30;99.90;;;;;;4987765;28;20452;-80
2021/03/24 01:18:23;;;;;;;23.63;19.70;;;0.30;99.90;;;;;;4979073;28;21266;-81
2021/03/24 01:20:51;;;;;;;23.80;20.57;;;0.30;99.90;;;;;;4984858;28;20468;-80
2021/03/24 01:23:18;;;;;;;21.93;18.93;;;0.30;99.90;;;;;;4981514;28;20465;-80
2021/03/24 01:25:44;;;;;;;26.03;21.67;;;0.30;99.90;;;;;;4989012;28;20967;-80
2021/03/24 01:28:17;;;;;;;23.33;19.53;;;0.30;99.90;;;;;;4989907;28;20445;-80
2021/03/24 01:30:43;;;;;;;26.30;20.20;;;0.20;99.90;;;;;;4988993;28;20469;-81
2021/03/24 01:33:10;;;;;;;21.87;19.27;;;0.20;99.90;;;;;;4987072;28;20483;-79
2021/03/24 01:35:37;;;;;;;22.23;19.93;;;0.20;99.90;;;;;;4989009;28;20448;-79
2021/03/24 01:38:03;;;;;;;22.00;19.20;;;0.10;99.90;;;;;;4988259;28;20459;-80
2021/03/24 01:40:33;;;;;;;22.30;18.83;;;0.10;99.90;;;;;;4989847;28;20463;-80
2021/03/24 01:43:02;;;;;;;24.43;20.70;;;0.10;99.90;;;;;;4990246;28;20441;-80
2021/03/24 01:46:08;;;;;;;21.87;19.60;;;0.10;99.90;;;;;;4987038;28;20440;-80
2021/03/24 01:48:37;;;;;;;21.10;18.90;;;0.10;99.90;;;;;;4984600;28;20469;-80
2021/03/24 01:51:05;;;;;;;22.17;19.90;;;0.10;99.90;;;;;;4986928;28;20461;-79
2021/03/24 01:53:34;;;;;;;24.03;20.03;;;0.10;99.90;;;;;;4993544;28;21001;-81
2021/03/24 01:56:00;;;;;;;20.53;17.63;;;0.10;99.90;;;;;;4985015;28;20581;-80
2021/03/24 01:58:26;;;;;;;24.67;20.53;;;0.10;99.90;;;;;;4988662;28;20532;-80
2021/03/24 02:00:53;;;;;;;21.23;19.00;;;0.10;99.90;;;;;;4989781;28;20488;-80
2021/03/24 02:03:23;;;;;;;22.67;19.80;;;0.10;99.90;;;;;;4986452;28;20472;-80
2021/03/24 02:05:51;;;;;;;24.67;20.20;;;0.10;99.90;;;;;;4979176;28;20434;-80
2021/03/24 02:08:21;;;;;;;23.97;20.97;;;0.10;99.90;;;;;;4985380;28;20457;-80
2021/03/24 02:10:50;;;;;;;25.60;19.37;;;0.10;99.90;;;;;;4988202;28;20479;-80
2021/03/24 02:13:21;;;;;;;22.27;18.90;;;0.00;99.90;;;;;;4976079;28;20476;-80
2021/03/24 02:15:51;;;;;;;21.83;19.23;;;0.00;99.90;;;;;;4985285;28;20444;-80
2021/03/24 02:18:20;;;;;;;23.60;19.47;;;0.00;99.90;;;;;;4989253;28;20472;-79
2021/03/24 02:20:51;;;;;;;21.97;19.67;;;-0.10;99.90;;;;;;4991096;28;20457;-80
2021/03/24 02:23:25;;;;;;;21.80;19.57;;;-0.10;99.90;;;;;;4992105;28;20459;-80
2021/03/24 02:25:55;;;;;;;23.40;21.00;;;0.00;99.90;;;;;;4988520;28;20468;-80
2021/03/24 02:28:23;;;;;;;23.53;20.40;;;0.00;99.90;;;;;;4983796;28;20472;-80
2021/03/24 02:30:51;;;;;;;23.23;19.70;;;-0.10;99.90;;;;;;4987167;28;20457;-80
2021/03/24 02:33:22;;;;;;;21.40;19.30;;;0.00;99.90;;;;;;4990255;28;20479;-79
2021/03/24 02:35:51;;;;;;;21.53;19.40;;;-0.10;99.90;;;;;;4989414;28;20451;-80
2021/03/24 02:38:21;;;;;;;24.20;19.23;;;-0.10;99.90;;;;;;4990381;28;20444;-80
2021/03/24 02:40:48;;;;;;;27.73;20.00;;;-0.10;99.90;;;;;;4988054;28;21024;-80
2021/03/24 02:43:16;;;;;;;20.80;18.57;;;-0.10;99.90;;;;;;4989767;28;20510;-79
2021/03/24 02:45:45;;;;;;;24.10;20.37;;;-0.10;99.90;;;;;;4986442;28;20440;-78
2021/03/24 02:48:15;;;;;;;23.63;20.07;;;-0.10;99.90;;;;;;4983395;28;20460;-79
2021/03/24 02:50:45;;;;;;;21.37;19.10;;;-0.10;99.90;;;;;;4986884;28;20479;-80
2021/03/24 02:53:13;;;;;;;20.77;18.60;;;-0.10;99.90;;;;;;4986520;28;20500;-80
2021/03/24 02:55:43;;;;;;;22.80;20.20;;;-0.20;99.90;;;;;;4979720;28;20434;-80
2021/03/24 02:58:10;;;;;;;22.20;19.90;;;-0.10;99.90;;;;;;4986046;28;20442;-79
2021/03/24 03:00:37;;;;;;;22.33;20.03;;;-0.10;99.90;;;;;;4989644;28;20476;-80
2021/03/24 03:03:10;;;;;;;23.10;20.73;;;-0.10;99.90;;;;;;4989397;28;20457;-80
2021/03/24 03:05:38;;;;;;;24.17;19.97;;;-0.10;99.90;;;;;;4978326;28;20440;-79
2021/03/24 03:08:08;;;;;;;22.87;20.37;;;-0.10;99.90;;;;;;4985385;28;20445;-80
2021/03/24 03:10:45;;;;;;;26.43;21.83;;;-0.10;99.90;;;;;;4977892;28;20465;-79
2021/03/24 03:13:18;;;;;;;21.43;19.27;;;-0.10;99.90;;;;;;4986495;28;20480;-79
2021/03/24 03:15:52;;;;;;;23.23;20.80;;;-0.10;99.90;;;;;;4985290;28;20452;-81
2021/03/24 03:18:24;;;;;;;23.23;20.73;;;-0.20;99.90;;;;;;4986292;28;20522;-80
2021/03/24 03:20:56;;;;;;;21.90;19.73;;;-0.20;99.90;;;;;;4986135;28;20824;-80
2021/03/24 03:23:27;;;;;;;22.07;19.53;;;-0.20;99.90;;;;;;4989115;28;20966;-80
2021/03/24 03:25:57;;;;;;;23.60;20.77;;;-0.20;99.90;;;;;;4979245;28;20532;-79
2021/03/24 03:28:27;;;;;;;22.40;20.00;;;-0.20;99.90;;;;;;4979693;28;20915;-79
2021/03/24 03:30:55;;;;;;;22.17;19.77;;;-0.30;99.90;;;;;;4987139;28;20540;-79
2021/03/24 03:33:25;;;;;;;23.53;21.13;;;-0.30;99.90;;;;;;4980489;28;20894;-79
2021/03/24 03:35:53;;;;;;;24.03;20.37;;;-0.20;99.90;;;;;;4989069;28;20457;-82
2021/03/24 03:38:20;;;;;;;24.40;19.77;;;-0.20;99.90;;;;;;4985214;28;20452;-81
2021/03/24 03:40:48;;;;;;;22.20;19.90;;;-0.30;99.90;;;;;;4977169;28;20476;-77
2021/03/24 03:43:17;;;;;;;21.77;19.67;;;-0.30;99.90;;;;;;4979480;28;20934;-76
2021/03/24 03:45:47;;;;;;;23.17;20.87;;;-0.30;99.90;;;;;;4993363;28;20528;-78
2021/03/24 03:48:15;;;;;;;27.43;21.07;;;-0.30;99.90;;;;;;4989720;28;20460;-78
2021/03/24 03:50:46;;;;;;;23.47;21.03;;;-0.30;99.90;;;;;;4970886;28;20480;-78
2021/03/24 03:53:21;;;;;;;23.87;21.37;;;-0.30;99.90;;;;;;4985240;28;20496;-77
2021/03/24 03:55:50;;;;;;;25.53;21.20;;;-0.30;99.90;;;;;;4981137;28;20979;-78
2021/03/24 03:58:31;;;;;;;23.73;21.20;;;-0.30;99.90;;;;;;4985410;28;20981;-79
2021/03/24 04:01:07;;;;;;;23.67;21.20;;;-0.30;99.90;;;;;;4985906;28;20467;-78
2021/03/24 04:03:40;;;;;;;23.63;20.97;;;-0.40;99.90;;;;;;4973921;28;20464;-77
2021/03/24 04:06:11;;;;;;;27.13;21.73;;;-0.40;99.90;;;;;;4980656;28;20450;-77
2021/03/24 04:08:38;;;;;;;23.27;20.77;;;-0.30;99.90;;;;;;4991954;28;21001;-80
2021/03/24 04:11:08;;;;;;;24.33;20.27;;;-0.40;99.90;;;;;;4982304;28;20466;-81
2021/03/24 04:13:37;;;;;;;25.10;21.07;;;-0.40;99.90;;;;;;4981396;28;20524;-80
2021/03/24 04:16:05;;;;;;;23.70;20.53;;;-0.40;99.90;;;;;;4981854;28;20504;-83
2021/03/24 04:18:35;;;;;;;28.03;22.47;;;-0.40;99.90;;;;;;4986833;28;20458;-83
2021/03/24 04:21:03;;;;;;;24.03;21.43;;;-0.40;99.90;;;;;;4985447;28;20473;-82
2021/03/24 04:23:35;;;;;;;24.83;20.80;;;-0.40;99.90;;;;;;4976474;28;20460;-81
2021/03/24 04:26:07;;;;;;;24.93;21.70;;;-0.50;99.90;;;;;;4981620;28;20694;-81
2021/03/24 04:28:39;;;;;;;28.00;22.77;;;-0.50;99.90;;;;;;4980053;28;20457;-81
2021/03/24 04:31:09;;;;;;;24.73;21.33;;;-0.50;99.90;;;;;;4982380;28;20469;-81
2021/03/24 04:33:36;;;;;;;26.50;22.23;;;-0.50;99.90;;;;;;4978636;28;20484;-81
2021/03/24 04:36:14;;;;;;;21.43;19.20;;;-0.60;99.90;;;;;;4977398;28;20485;-80
2021/03/24 04:38:47;;;;;;;28.37;22.03;;;-0.60;99.90;;;;;;4978840;28;20453;-81
2021/03/24 04:41:19;;;;;;;28.97;23.67;;;-0.70;99.90;;;;;;4981504;28;20465;-80
2021/03/24 04:43:52;;;;;;;25.53;22.30;;;-0.60;99.90;;;;;;4983862;28;20935;-81
2021/03/24 04:46:21;;;;;;;27.00;23.17;;;-0.70;99.90;;;;;;4985286;28;20433;-81
2021/03/24 04:48:50;;;;;;;25.03;21.10;;;-0.70;99.90;;;;;;4980750;28;20507;-81
2021/03/24 04:51:20;;;;;;;28.57;21.90;;;-0.70;99.90;;;;;;4977843;28;20985;-81
2021/03/24 04:53:52;;;;;;;32.93;24.03;;;-0.70;99.90;;;;;;4980300;28;20461;-81
2021/03/24 04:56:20;;;;;;;31.10;23.90;;;-0.70;99.90;;;;;;4982528;28;20440;-80
2021/03/24 04:58:52;;;;;;;34.73;24.80;;;-0.60;99.90;;;;;;4981492;28;20453;-81
2021/03/24 05:01:25;;;;;;;29.70;23.73;;;-0.50;99.90;;;;;;4999818;28;20446;-81
2021/03/24 05:03:55;;;;;;;27.37;22.63;;;-0.60;99.90;;;;;;4983984;28;20434;-82
2021/03/24 05:06:27;;;;;;;28.17;24.13;;;-0.60;99.90;;;;;;4984632;28;20452;-81
2021/03/24 05:08:54;;;;;;;34.70;25.07;;;-0.60;99.90;;;;;;4983398;28;20557;-81
2021/03/24 05:11:27;;;;;;;33.17;24.57;;;-0.60;99.90;;;;;;4978871;28;20450;-81
2021/03/24 05:13:59;;;;;;;34.53;25.37;;;-0.70;99.90;;;;;;4980481;28;20468;-81
2021/03/24 05:16:31;;;;;;;26.20;23.43;;;-0.60;99.90;;;;;;4986095;28;20441;-82
2021/03/24 05:18:59;;;;;;;31.47;24.80;;;-0.60;99.90;;;;;;4987893;28;20540;-81
2021/03/24 05:21:50;;;;;;;29.10;23.03;;;-0.60;99.90;;;;;;4982918;28;20440;-81
2021/03/24 05:24:24;;;;;;;28.13;22.67;;;-0.60;99.90;;;;;;4980843;28;20453;-80
2021/03/24 05:26:53;;;;;;;33.93;24.80;;;-0.70;99.90;;;;;;4982006;28;20880;-81
2021/03/24 05:29:23;;;;;;;26.20;23.23;;;-0.60;99.90;;;;;;4984427;28;20997;-80
2021/03/24 05:31:54;;;;;;;30.63;24.50;;;-0.50;99.90;;;;;;4981806;28;20900;-81
2021/03/24 05:34:26;;;;;;;30.20;24.03;;;-0.60;99.90;;;;;;4977883;28;20477;-80
2021/03/24 05:36:53;;;;;;;29.07;22.70;;;-0.60;99.90;;;;;;4979822;28;20993;-81
2021/03/24 05:39:25;;;;;;;27.40;23.77;;;-0.60;99.90;;;;;;4982921;28;20468;-81
2021/03/24 05:41:59;;;;;;;32.67;24.47;;;-0.60;99.90;;;;;;4981238;28;20843;-81
2021/03/24 05:44:55;;;;;;;31.33;23.80;;;-0.60;99.90;;;;;;4981124;28;20449;-81
2021/03/24 05:47:35;;;;;;;26.17;22.83;;;-0.50;99.90;;;;;;4982841;28;20446;-85
2021/03/24 05:50:23;;;;;;;26.30;22.30;;;-0.50;99.90;;;;;;4977527;28;20469;-81
2021/03/24 05:52:58;;;;;;;27.17;21.50;;;-0.50;99.90;;;;;;4978112;28;20455;-79
2021/03/24 05:55:37;;;;;;;36.30;25.40;;;-0.50;99.90;;;;;;4982146;28;20475;-77
2021/03/24 05:58:16;;;;;;;36.30;25.03;;;-0.50;99.90;;;;;;4981532;28;20448;-77
2021/03/24 06:00:47;;;;;;;33.37;24.10;;;-0.30;99.90;;;;;;4973424;28;20512;-77
2021/03/24 06:03:24;;;;;;;33.17;25.13;;;0.00;99.90;;;;;;4972997;28;20860;-77
2021/03/24 06:06:25;;;;;;;33.00;24.80;;;0.20;99.90;;;;;;4981519;28;20539;-77
2021/03/24 06:09:31;;;;;;;27.83;24.30;;;0.40;99.90;;;;;;4991717;28;20446;-77
2021/03/24 06:12:30;;;;;;;29.70;23.80;;;0.80;99.90;;;;;;4947423;28;20815;-77
2021/03/24 06:15:20;;;;;;;32.10;24.17;;;1.00;99.90;;;;;;4983905;28;20986;-77
2021/03/24 06:18:25;;;;;;;28.73;23.13;;;1.20;99.90;;;;;;4980289;28;20544;-77
2021/03/24 06:20:58;;;;;;;24.67;21.03;;;1.50;99.90;;;;;;4975955;28;20485;-77
2021/03/24 06:23:58;;;;;;;24.37;21.80;;;1.90;99.90;;;;;;4983288;28;20425;-77
2021/03/24 06:26:42;;;;;;;22.80;20.33;;;2.10;99.90;;;;;;4981786;28;20444;-77
2021/03/24 06:29:22;;;;;;;24.00;20.57;;;2.20;99.90;;;;;;4977270;28;20828;-77
2021/03/24 06:32:33;;;;;;;24.27;20.50;;;2.40;99.90;;;;;;4984652;28;20456;-77
2021/03/24 06:35:21;;;;;;;23.60;20.87;;;2.40;99.90;;;;;;4978809;28;20507;-77
2021/03/24 06:38:06;;;;;;;23.97;19.97;;;2.50;99.90;;;;;;4979117;28;20460;-82
2021/03/24 06:40:43;;;;;;;21.90;18.60;;;2.50;99.90;;;;;;4981067;28;20485;-81
2021/03/24 06:43:28;;;;;;;23.83;18.03;;;2.70;99.90;;;;;;4981932;28;20479;-82
2021/03/24 06:46:05;;;;;;;19.30;13.87;;;2.80;99.90;;;;;;4973544;28;20447;-78
2021/03/24 06:48:57;;;;;;;22.20;13.90;;;3.00;99.90;;;;;;4981260;28;20445;-79
2021/03/24 06:52:00;;;;;;;23.83;14.43;;;3.00;99.90;;;;;;4997176;28;20445;-80
2021/03/24 06:54:51;;;;;;;18.57;13.07;;;3.30;99.90;;;;;;4945082;28;20477;-80
2021/03/24 06:57:35;;;;;;;21.30;13.70;;;3.50;99.90;;;;;;4953014;28;20481;-83
2021/03/24 07:00:26;;;;;;;25.73;14.67;;;3.60;99.90;;;;;;4990576;28;20493;-83
2021/03/24 07:03:30;;;;;;;27.50;21.97;;;3.70;99.90;;;;;;4975156;28;20488;-83
2021/03/24 07:06:20;;;;;;;21.13;15.70;;;3.80;99.90;;;;;;4976162;28;20513;-83
2021/03/24 07:09:09;;;;;;;22.07;14.80;;;4.00;99.90;;;;;;4976008;28;20448;-84
2021/03/24 07:11:47;;;;;;;24.03;14.47;;;4.30;99.90;;;;;;4977969;28;20489;-83
2021/03/24 07:14:56;;;;;;;26.27;18.07;;;4.70;99.90;;;;;;4983632;28;20222;-82
2021/03/24 07:17:49;;;;;;;22.63;18.43;;;4.90;99.90;;;;;;4976957;28;20818;-82
2021/03/24 07:20:38;;;;;;;26.10;20.83;;;5.10;99.90;;;;;;4978699;28;20577;-78
2021/03/24 07:23:28;;;;;;;23.70;20.87;;;5.40;99.90;;;;;;4983226;28;20265;-77
2021/03/24 07:26:04;;;;;;;21.47;17.43;;;5.80;99.90;;;;;;4985222;28;20190;-77
2021/03/24 07:28:55;;;;;;;23.00;20.00;;;6.20;99.90;;;;;;4986933;28;20205;-76
2021/03/24 07:31:44;;;;;;;22.67;20.03;;;6.40;99.90;;;;;;4985138;28;20269;-77
2021/03/24 07:34:22;;;;;;;21.37;19.07;;;6.70;99.90;;;;;;4986432;28;20310;-74
2021/03/24 07:37:14;;;;;;;23.67;21.27;;;7.30;99.90;;;;;;4975347;28;20211;-76
2021/03/24 07:39:59;;;;;;;22.60;20.20;;;7.50;99.90;;;;;;4972718;28;20725;-75
2021/03/24 07:43:21;;;;;;;22.67;20.30;;;7.80;99.90;;;;;;4983685;28;20841;-77
2021/03/24 07:46:16;;;;;;;23.63;15.83;;;8.10;99.90;;;;;;4954341;28;20672;-77
2021/03/24 07:49:12;;;;;;;20.07;15.30;;;8.50;99.90;;;;;;4983790;28;20212;-78
2021/03/24 07:52:19;;;;;;;21.23;13.73;;;8.70;99.90;;;;;;4995524;28;20256;-76
2021/03/24 07:55:02;;;;;;;20.40;15.30;;;9.20;99.90;;;;;;4962957;28;20213;-78
2021/03/24 07:57:35;;;;;;;19.97;14.43;;;9.40;99.90;;;;;;4985776;28;20753;-78
2021/03/24 08:00:11;;;;;;;18.13;14.40;;;9.90;99.90;;;;;;4982121;28;20220;-78
2021/03/24 08:02:57;;;;;;;19.00;14.70;;;10.20;99.90;;;;;;4980093;28;20646;-78
2021/03/24 08:06:11;;;;;;;19.80;14.47;;;10.20;99.90;;;;;;4999715;28;20269;-78
2021/03/24 08:09:20;;;;;;;16.90;13.93;;;10.20;99.90;;;;;;4984174;28;20198;-78
2021/03/24 08:11:56;;;;;;;21.30;18.13;;;10.10;99.90;;;;;;4977480;28;20721;-77
2021/03/24 08:15:05;;;;;;;18.50;16.50;;;9.90;99.90;;;;;;4985921;28;20233;-78
2021/03/24 08:17:45;;;;;;;21.33;19.23;;;9.70;99.90;;;;;;4969606;28;20205;-78
2021/03/24 08:20:23;;;;;;;20.87;18.77;;;10.10;99.90;;;;;;4985775;28;20218;-78
2021/03/24 08:23:34;;;;;;;20.70;18.57;;;10.40;99.90;;;;;;4983373;28;20206;-78
2021/03/24 08:26:14;;;;;;;21.67;19.50;;;10.50;99.90;;;;;;4956961;28;20205;-78
2021/03/24 08:28:53;;;;;;;21.37;18.57;;;10.40;99.90;;;;;;4975314;28;20229;-78
2021/03/24 08:31:49;;;;;;;23.40;19.60;;;10.70;99.90;;;;;;4989665;28;20208;-78
2021/03/24 08:34:30;;;;;;;21.90;19.20;;;10.90;99.90;;;;;;4975214;28;20285;-78
2021/03/24 08:37:34;;;;;;;21.10;19.00;;;10.70;99.90;;;;;;4989094;28;20189;-78
2021/03/24 08:40:36;;;;;;;21.27;18.93;;;10.50;99.90;;;;;;4958833;28;20221;-78
2021/03/24 08:43:32;;;;;;;20.53;18.43;;;10.60;99.90;;;;;;4978039;28;20304;-78
2021/03/24 08:46:08;;;;;;;21.00;18.80;;;10.50;99.90;;;;;;4981990;28;20201;-78
2021/03/24 08:48:40;;;;;;;22.43;20.00;;;10.70;99.90;;;;;;4987064;28;20189;-78
2021/03/24 08:51:15;;;;;;;19.90;17.80;;;11.20;99.90;;;;;;4987280;28;20225;-77
2021/03/24 08:53:54;;;;;;;21.27;18.37;;;11.30;99.90;;;;;;4973299;28;20224;-78
2021/03/24 08:56:27;;;;;;;21.67;19.37;;;11.50;99.90;;;;;;4990827;28;20559;-78
2021/03/24 08:59:04;;;;;;;18.90;16.47;;;11.90;99.90;;;;;;4993366;28;20238;-78
2021/03/24 09:02:03;;;;;;;20.33;18.23;;;12.20;99.90;;;;;;4981949;28;20191;-78
2021/03/24 09:04:58;;;;;;;21.70;18.97;;;12.60;99.90;;;;;;4979220;28;20593;-78
2021/03/24 09:07:36;;;;;;;20.97;18.77;;;12.90;99.90;;;;;;4976808;28;20573;-78
2021/03/24 09:10:28;;;;;;;19.50;17.37;;;13.20;99.90;;;;;;4987084;28;20211;-78
2021/03/24 09:13:01;;;;;;;23.37;18.80;;;13.50;99.90;;;;;;4986777;28;20204;-76
2021/03/24 09:15:36;;;;;;;18.33;14.90;;;13.50;99.90;;;;;;4975528;28;20247;-76
2021/03/24 09:18:12;;;;;;;19.37;16.50;;;13.60;99.90;;;;;;4984507;28;20200;-77
2021/03/24 09:21:01;;;;;;;20.47;16.13;;;13.60;99.90;;;;;;4981414;28;20219;-77
2021/03/24 09:24:00;;;;;;;23.37;18.63;;;13.70;99.90;;;;;;4980106;28;20213;-77
2021/03/24 09:27:03;;;;;;;21.47;17.23;;;13.60;99.90;;;;;;4979239;28;20450;-77
2021/03/24 09:29:40;;;;;;;20.27;17.03;;;13.80;99.90;;;;;;4980310;28;20217;-77
2021/03/24 09:32:22;;;;;;;19.40;17.37;;;14.20;99.90;;;;;;4987832;28;20272;-75
2021/03/24 09:35:10;;;;;;;19.70;17.60;;;14.20;99.90;;;;;;4987488;28;20226;-76
2021/03/24 09:37:40;;;;;;;19.13;16.10;;;14.00;99.90;;;;;;4982814;28;20201;-79
2021/03/24 09:40:10;;;;;;;16.23;13.57;;;14.10;99.90;;;;;;4973037;28;20784;-78
2021/03/24 09:42:39;;;;;;;18.93;15.03;;;14.10;99.90;;;;;;4981504;28;20268;-78
2021/03/24 09:45:16;;;;;;;16.33;14.43;;;14.00;99.90;;;;;;4981662;28;20238;-77
2021/03/24 09:47:49;;;;;;;16.43;14.27;;;14.30;99.90;;;;;;4970425;28;20204;-77
2021/03/24 09:50:31;;;;;;;14.63;13.20;;;14.30;99.90;;;;;;4983018;28;20229;-78
2021/03/24 09:53:03;;;;;;;15.40;13.73;;;14.40;99.90;;;;;;4982783;28;20204;-78
2021/03/24 09:55:33;;;;;;;16.10;14.50;;;14.30;99.90;;;;;;4981597;28;20218;-78
2021/03/24 09:58:20;;;;;;;17.53;15.77;;;14.20;99.90;;;;;;4983242;28;20264;-78
2021/03/24 10:00:57;;;;;;;18.47;16.63;;;14.20;99.90;;;;;;4976097;28;20740;-78
2021/03/24 10:03:36;;;;;;;21.07;17.53;;;14.20;99.90;;;;;;5006376;28;20561;-77
2021/03/24 10:06:05;;;;;;;17.07;11.60;;;14.10;99.90;;;;;;4984448;28;20208;-78
2021/03/24 10:08:36;;;;;;;17.40;15.70;;;13.90;99.90;;;;;;4991451;28;20209;-78
2021/03/24 10:11:07;;;;;;;16.37;14.67;;;13.80;99.90;;;;;;4983408;28;20217;-77
2021/03/24 10:13:40;;;;;;;17.50;15.07;;;13.80;99.90;;;;;;4977904;28;20201;-77
2021/03/24 10:16:15;;;;;;;17.10;15.40;;;13.60;99.90;;;;;;4973713;28;20202;-77
2021/03/24 10:18:50;;;;;;;19.33;15.53;;;13.50;99.90;;;;;;4977341;28;20206;-77
2021/03/24 10:21:19;;;;;;;15.80;14.20;;;13.40;99.90;;;;;;4974331;28;20207;-78
2021/03/24 10:23:48;;;;;;;16.77;14.73;;;13.50;99.90;;;;;;4959681;28;20198;-77
2021/03/24 10:26:16;;;;;;;16.23;14.63;;;13.30;99.90;;;;;;4977267;28;20220;-77
2021/03/24 10:28:50;;;;;;;20.43;16.77;;;13.30;99.90;;;;;;4974472;28;20203;-77
2021/03/24 10:31:20;;;;;;;17.43;15.57;;;13.20;99.90;;;;;;4967822;28;20677;-78
2021/03/24 10:33:52;;;;;;;16.07;14.37;;;13.10;99.90;;;;;;4960991;28;20267;-78
2021/03/24 10:36:25;;;;;;;16.90;15.13;;;13.00;99.90;;;;;;4964046;28;20204;-78
2021/03/24 10:38:57;;;;;;;15.43;13.93;;;12.90;99.90;;;;;;4974482;28;20646;-77
2021/03/24 10:41:42;;;;;;;19.47;16.77;;;13.00;99.90;;;;;;4982853;28;20213;-77
2021/03/24 10:44:16;;;;;;;16.00;14.47;;;12.80;99.90;;;;;;4977432;28;20271;-78
2021/03/24 10:47:00;;;;;;;15.33;13.73;;;12.70;99.90;;;;;;4962152;28;20194;-78
2021/03/24 10:49:34;;;;;;;16.10;14.50;;;12.90;99.90;;;;;;4967321;28;20321;-78
2021/03/24 10:52:05;;;;;;;16.73;14.37;;;12.90;99.90;;;;;;4983002;28;20249;-78
2021/03/24 10:54:34;;;;;;;18.23;16.40;;;12.90;99.90;;;;;;4987972;28;20232;-78
2021/03/24 10:57:30;;;;;;;17.13;15.33;;;12.90;99.90;;;;;;4985747;28;20441;-78
2021/03/24 11:00:06;;;;;;;16.53;14.60;;;12.80;99.90;;;;;;4982202;28;20233;-78
2021/03/24 11:02:39;;;;;;;20.90;15.73;;;12.70;99.90;;;;;;4988878;28;20551;-78
2021/03/24 11:05:11;;;;;;;16.53;14.93;;;12.50;99.90;;;;;;4988813;28;20624;-77
2021/03/24 11:07:43;;;;;;;15.00;13.57;;;12.40;99.90;;;;;;4993248;28;20687;-77
2021/03/24 11:10:41;;;;;;;17.50;14.47;;;12.50;99.90;;;;;;4986581;28;20222;-77
2021/03/24 11:13:15;;;;;;;16.53;14.87;;;12.20;99.90;;;;;;4962463;28;20544;-78
2021/03/24 11:16:06;;;;;;;16.47;14.87;;;12.30;99.90;;;;;;4979803;28;20224;-78
2021/03/24 11:18:38;;;;;;;16.80;14.47;;;12.20;99.90;;;;;;4979028;28;20209;-78
2021/03/24 11:21:20;;;;;;;15.80;14.17;;;12.10;99.90;;;;;;4988148;28;20221;-78
2021/03/24 11:23:51;;;;;;;14.43;12.93;;;12.30;99.90;;;;;;4984043;28;20201;-78
2021/03/24 11:26:46;;;;;;;15.80;14.20;;;12.40;99.90;;;;;;4990608;28;20202;-78
2021/03/24 11:29:18;;;;;;;16.50;14.17;;;12.50;99.90;;;;;;4982167;28;20249;-77
2021/03/24 11:31:55;;;;;;;15.73;14.20;;;12.60;99.90;;;;;;4991402;28;20348;-77
2021/03/24 11:34:29;;;;;;;15.73;14.23;;;12.80;99.90;;;;;;4986778;28;20211;-77
2021/03/24 11:37:01;;;;;;;17.80;15.00;;;12.70;99.90;;;;;;4990479;28;20672;-78
2021/03/24 11:39:33;;;;;;;15.80;14.40;;;12.70;99.90;;;;;;4988013;28;20228;-78
2021/03/24 11:42:14;;;;;;;15.90;14.50;;;12.80;99.90;;;;;;4987657;28;20202;-78
2021/03/24 11:44:41;;;;;;;15.57;14.17;;;12.90;99.90;;;;;;4994214;28;20229;-77
2021/03/24 11:47:32;;;;;;;15.83;14.23;;;12.90;99.90;;;;;;4988647;28;20201;-78
2021/03/24 11:50:05;;;;;;;14.90;13.53;;;12.90;99.90;;;;;;4999580;28;20737;-77
2021/03/24 11:52:53;;;;;;;16.03;13.90;;;13.10;99.90;;;;;;4988090;28;20721;-78
2021/03/24 11:55:38;;;;;;;15.97;14.43;;;13.10;99.90;;;;;;4988071;28;20249;-78
2021/03/24 11:58:14;;;;;;;14.07;12.70;;;13.10;99.90;;;;;;4986212;28;20262;-78
2021/03/24 12:00:52;;;;;;;14.07;12.77;;;13.20;99.90;;;;;;4983283;28;20237;-78
2021/03/24 12:03:43;;;;;;;13.97;12.40;;;13.20;99.90;;;;;;5002146;28;20651;-79
2021/03/24 12:06:22;;;;;;;14.47;12.50;;;13.20;99.90;;;;;;4985729;28;20261;-78
2021/03/24 12:08:55;;;;;;;14.13;12.83;;;13.20;99.90;;;;;;4985517;28;20207;-78
2021/03/24 12:11:24;;;;;;;13.60;12.23;;;13.30;99.90;;;;;;4984301;28;20700;-78
2021/03/24 12:14:11;;;;;;;12.67;11.37;;;13.30;99.90;;;;;;4977731;28;20226;-78
2021/03/24 12:16:44;;;;;;;12.47;11.27;;;13.30;99.90;;;;;;4977163;28;20195;-78
2021/03/24 12:19:29;;;;;;;12.73;11.53;;;13.30;99.90;;;;;;4979881;28;20218;-78
2021/03/24 12:21:57;;;;;;;11.47;10.47;;;13.30;99.90;;;;;;4976472;28;20219;-78
2021/03/24 12:24:29;;;;;;;11.43;10.50;;;13.40;99.90;;;;;;5000768;28;20211;-78
2021/03/24 12:27:14;;;;;;;11.10;10.10;;;13.30;99.90;;;;;;4983876;28;20241;-78
2021/03/24 12:29:43;;;;;;;10.70;9.80;;;13.40;99.90;;;;;;4979769;28;20219;-78
2021/03/24 12:32:21;;;;;;;10.00;9.17;;;13.50;99.90;;;;;;4982620;28;20679;-74
2021/03/24 12:34:47;;;;;;;10.53;9.67;;;13.60;99.90;;;;;;4988192;28;20585;-77
2021/03/24 12:37:28;;;;;;;10.33;9.43;;;13.60;99.90;;;;;;4977817;28;20203;-75
2021/03/24 12:40:06;;;;;;;10.60;9.60;;;13.60;99.90;;;;;;4986107;28;20219;-75
2021/03/24 12:42:33;;;;;;;11.10;10.10;;;13.70;99.90;;;;;;4985631;28;20200;-75
2021/03/24 12:45:01;;;;;;;10.30;9.40;;;13.60;99.90;;;;;;4984744;28;20200;-75
2021/03/24 12:47:34;;;;;;;10.07;9.27;;;13.60;99.90;;;;;;4983402;28;20461;-75
2021/03/24 12:50:22;;;;;;;11.43;10.33;;;13.60;99.90;;;;;;5014766;22;20268;-79
2021/03/24 12:52:52;;;;;;;12.00;10.90;;;13.50;99.90;;;;;;5041932;28;20204;-76
2021/03/24 12:55:19;;;;;;;11.63;10.43;;;13.50;99.90;;;;;;5043123;28;20594;-76
2021/03/24 12:57:52;;;;;;;9.97;9.00;;;13.50;99.90;;;;;;5042811;28;20203;-75
2021/03/24 13:00:38;;;;;;;11.30;10.20;;;13.50;99.90;;;;;;5042490;28;20229;-76
2021/03/24 13:03:26;;;;;;;9.93;9.13;;;13.60;99.90;;;;;;5044625;28;20199;-76
2021/03/24 13:06:07;;;;;;;10.73;9.83;;;13.60;99.90;;;;;;5040354;28;20198;-76
2021/03/24 13:08:42;;;;;;;10.97;10.07;;;13.60;99.90;;;;;;5034982;28;20209;-77
2021/03/24 13:11:23;;;;;;;11.50;10.30;;;13.60;99.90;;;;;;5035875;28;20701;-77
2021/03/24 13:13:58;;;;;;;10.70;9.77;;;13.70;99.90;;;;;;5036542;28;20636;-77
2021/03/24 13:16:30;;;;;;;11.63;10.50;;;13.60;99.90;;;;;;5038712;28;20628;-78
2021/03/24 13:19:07;;;;;;;11.17;10.07;;;13.60;99.90;;;;;;5030186;28;20199;-76
2021/03/24 13:21:46;;;;;;;11.13;10.03;;;13.60;99.90;;;;;;5035218;28;20229;-78